TimeEST,TemperatureF,Dew PointF,Humidity,Sea Level PressureIn,VisibilityMPH,Wind Direction,Wind SpeedMPH,Gust SpeedMPH,PrecipitationIn,Events,Conditions,WindDirDegrees,DateUTC
12:17 AM,18.3,15.4,89,29.76,4.0,WNW,3.5,-,N/A,Snow,Light Snow,290,2013-02-12 05:17:00
12:36 AM,18.3,15.4,89,29.77,4.0,WNW,3.5,-,N/A,Snow,Light Snow,290,2013-02-12 05:36:00
12:57 AM,18.7,15.8,89,29.77,1.5,Calm,Calm,-,N/A,Snow,Light Snow,0,2013-02-12 05:57:00
1:17 AM,18.9,16.2,89,29.78,1.5,Calm,Calm,-,N/A,Snow,Light Snow,0,2013-02-12 06:17:00
1:36 AM,19.2,16.5,89,29.79,2.5,Calm,Calm,-,N/A,Snow,Light Snow,0,2013-02-12 06:36:00
1:57 AM,20.7,17.1,86,29.79,7.0,NW,6.9,-,N/A,Snow,Light Snow,320,2013-02-12 06:57:00
2:37 AM,21.6,16.7,82,29.80,10.0,NW,12.7,-,N/A,Snow,Light Snow,320,2013-02-12 07:37:00
2:57 AM,21.2,16.3,82,29.80,10.0,NW,10.4,18.4,N/A,,Overcast,320,2013-02-12 07:57:00
3:16 AM,21.2,16.3,82,29.81,10.0,NW,11.5,-,N/A,Snow,Light Snow,310,2013-02-12 08:16:00
3:37 AM,21.0,16.2,81,29.82,7.0,NNW,9.2,-,N/A,Snow,Light Snow,330,2013-02-12 08:37:00
3:57 AM,21.0,16.2,81,29.82,7.0,NNW,11.5,-,N/A,Snow,Light Snow,330,2013-02-12 08:57:00
4:16 AM,20.7,15.8,81,29.81,7.0,NNW,9.2,-,N/A,Snow,Light Snow,330,2013-02-12 09:16:00
4:37 AM,20.5,15.8,82,29.83,7.0,NW,5.8,-,N/A,Snow,Light Snow,320,2013-02-12 09:37:00
4:56 AM,20.1,15.8,83,29.83,10.0,NW,3.5,-,N/A,,Overcast,320,2013-02-12 09:56:00
5:17 AM,19.4,15.4,85,29.83,10.0,NW,5.8,-,N/A,Snow,Light Snow,320,2013-02-12 10:17:00
5:56 AM,17.1,14.5,90,29.84,10.0,Calm,Calm,-,N/A,,Scattered Clouds,0,2013-02-12 10:56:00
6:50 AM,15.8,14.0,93,29.86,4.0,Calm,Calm,-,N/A,Snow,Light Snow,0,2013-02-12 11:50:00
7:50 AM,17.6,14.0,86,29.87,7.0,Calm,Calm,-,N/A,Snow,Light Snow,0,2013-02-12 12:50:00
8:50 AM,17.6,14.0,86,29.89,4.0,WNW,4.6,-,N/A,Snow,Light Snow,290,2013-02-12 13:50:00
10:50 AM,21.2,15.8,80,29.87,7.0,West,4.6,-,N/A,Snow,Light Snow,260,2013-02-12 15:50:00
11:50 AM,23.0,15.8,74,29.87,10.0,West,5.8,-,N/A,Snow,Light Snow,270,2013-02-12 16:50:00
12:50 PM,23.0,14.0,68,29.85,10.0,West,10.4,-,N/A,,Overcast,260,2013-02-12 17:50:00
1:50 PM,23.0,14.0,68,29.82,10.0,WSW,8.1,-,N/A,Snow,Light Snow,240,2013-02-12 18:50:00
4:50 PM,23.0,15.8,74,29.77,10.0,SW,12.7,-,N/A,,Mostly Cloudy,230,2013-02-12 21:50:00
5:50 PM,23.0,15.8,74,29.77,10.0,WSW,9.2,-,N/A,,Scattered Clouds,250,2013-02-12 22:50:00
6:50 PM,21.2,15.8,80,29.77,10.0,SW,8.1,-,N/A,,Scattered Clouds,220,2013-02-12 23:50:00
7:50 PM,19.4,15.8,86,29.77,10.0,SW,9.2,-,N/A,,Mostly Cloudy,230,2013-02-13 00:50:00
8:50 PM,21.2,17.6,86,29.75,10.0,SW,10.4,-,N/A,,Overcast,230,2013-02-13 01:50:00
9:50 PM,21.2,17.6,86,29.74,10.0,WSW,9.2,-,N/A,,Overcast,240,2013-02-13 02:50:00
10:16 PM,20.8,17.4,87,29.73,10.0,WSW,6.9,-,N/A,,Overcast,240,2013-02-13 03:16:00
10:37 PM,20.1,17.1,88,29.72,10.0,WSW,5.8,-,N/A,,Mostly Cloudy,240,2013-02-13 03:37:00
10:57 PM,20.1,17.1,88,29.72,10.0,WSW,5.8,-,N/A,,Overcast,240,2013-02-13 03:57:00
11:17 PM,20.3,17.2,88,29.71,10.0,SW,6.9,-,N/A,,Overcast,220,2013-02-13 04:17:00
11:37 PM,19.8,16.9,89,29.71,10.0,SW,5.8,-,N/A,,Mostly Cloudy,220,2013-02-13 04:37:00
11:56 PM,19.0,16.5,90,29.70,10.0,SSW,5.8,-,N/A,,Scattered Clouds,200,2013-02-13 04:56:00